Time;durP1;ratioP1;P1;durP2;ratioP2;P2;SDS_P1;SDS_P2;PMS_P1;PMS_P2;Temp;Humidity;BMP_temperature;BMP_pressure;BME280_temperature;BME280_humidity;BME280_pressure;Samples;Min_cycle;Max_cycle;Signal;HPM_P1;HPM_P2
2022/06/23 00:01:46;;;;;;;;;17.33;16.33;;;;;22.84;55.55;100746.72;5049148;28;45292;-66
2022/06/23 00:04:18;;;;;;;;;17.33;15.67;;;;;22.84;55.77;100746.72;5049541;28;45315;-66
2022/06/23 00:06:47;;;;;;;;;19.67;16.67;;;;;22.86;55.97;100752.81;5058849;28;45295;-65
2022/06/23 00:09:32;;;;;;;;;17.00;16.33;;;;;22.84;55.92;100744.03;5056541;28;46500;-65
2022/06/23 00:11:57;;;;;;;;;19.00;17.33;;;;;22.80;56.56;100739.91;5057637;28;45406;-64
2022/06/23 00:14:25;;;;;;;;;19.00;18.00;;;;;22.74;57.16;100735.97;5059598;27;45347;-64
2022/06/23 00:16:50;;;;;;;;;17.67;17.67;;;;;22.68;57.01;100747.44;5065187;28;45292;-64
2022/06/23 00:19:15;;;;;;;;;21.33;20.33;;;;;22.65;57.52;100757.75;5063216;28;71664;-65
2022/06/23 00:21:44;;;;;;;;;20.00;17.33;;;;;22.63;57.03;100761.47;5056122;28;69570;-64
2022/06/23 00:24:17;;;;;;;;;20.00;19.67;;;;;22.59;56.96;100749.25;5055198;28;45307;-65
2022/06/23 00:26:43;;;;;;;;;16.67;16.67;;;;;22.52;57.71;100741.91;5053768;28;45519;-64
2022/06/23 00:29:15;;;;;;;;;14.33;13.33;;;;;22.50;58.27;100733.91;5062549;28;75029;-64
2022/06/23 00:31:47;;;;;;;;;20.00;20.00;;;;;22.44;57.60;100731.84;5058272;28;45244;-64
2022/06/23 00:34:29;;;;;;;;;19.67;19.67;;;;;22.30;58.31;100734.03;5056551;28;45578;-65
2022/06/23 00:37:01;;;;;;;;;20.00;20.00;;;;;22.23;58.35;100732.97;5057043;28;45473;-64
2022/06/23 00:39:43;;;;;;;;;28.00;25.00;;;;;22.16;58.43;100718.31;5058970;28;46133;-64
2022/06/23 00:42:22;;;;;;;;;28.00;24.67;;;;;22.04;58.29;100720.41;5061071;28;45439;-65
2022/06/23 00:45:10;;;;;;;;;27.67;24.00;;;;;21.98;58.55;100721.88;5059320;27;45521;-65
2022/06/23 00:47:59;;;;;;;;;27.33;24.00;;;;;21.93;59.24;100718.78;5060207;28;45387;-64
2022/06/23 00:50:30;;;;;;;;;28.67;25.67;;;;;21.93;59.16;100716.09;5052785;28;46309;-65
2022/06/23 00:53:01;;;;;;;;;22.33;20.67;;;;;21.91;59.35;100718.06;5066302;28;45338;-65
2022/06/23 00:55:52;;;;;;;;;26.33;23.00;;;;;21.90;59.21;100715.53;5060532;28;45337;-64
2022/06/23 00:58:24;;;;;;;;;25.00;23.67;;;;;21.89;59.32;100708.41;5074037;27;45620;-65
2022/06/23 01:00:52;;;;;;;;;20.00;20.00;;;;;21.83;59.54;100704.47;5060334;28;45366;-65
2022/06/23 01:03:27;;;;;;;;;25.67;23.00;;;;;21.72;60.06;100708.25;5056881;28;45651;-65
2022/06/23 01:06:21;;;;;;;;;22.33;19.00;;;;;21.62;59.86;100718.28;5056107;28;45453;-65
2022/06/23 01:08:54;;;;;;;;;26.00;20.67;;;;;21.54;60.12;100712.75;5059520;28;45402;-64
2022/06/23 01:11:28;;;;;;;;;20.33;19.67;;;;;21.53;60.68;100713.75;5057538;28;45474;-65
2022/06/23 01:14:21;;;;;;;;;20.67;19.67;;;;;21.53;60.29;100713.75;5059382;28;45370;-65
2022/06/23 01:16:53;;;;;;;;;20.33;18.33;;;;;21.51;60.37;100716.59;5061901;28;45526;-65
2022/06/23 01:19:38;;;;;;;;;18.00;18.00;;;;;21.44;60.80;100710.06;5059797;28;45569;-65
2022/06/23 01:22:07;;;;;;;;;21.00;17.67;;;;;21.41;61.20;100708.53;5054662;28;46195;-64
2022/06/23 01:24:48;;;;;;;;;24.00;21.67;;;;;21.43;60.90;100701.13;5073385;27;45402;-65
2022/06/23 01:27:41;;;;;;;;;24.00;21.00;;;;;21.41;61.45;100700.41;5061134;28;45275;-65
2022/06/23 01:30:09;;;;;;;;;20.67;19.00;;;;;21.42;61.73;100702.13;5051489;28;45310;-65
2022/06/23 01:32:41;;;;;;;;;23.67;21.67;;;;;21.42;61.60;100696.69;5063527;28;46144;-65
2022/06/23 01:35:14;;;;;;;;;20.33;18.00;;;;;21.39;61.10;100691.56;5058094;28;45488;-65
2022/06/23 01:37:47;;;;;;;;;28.33;23.67;;;;;21.34;61.34;100698.44;5057524;28;45450;-65
2022/06/23 01:40:19;;;;;;;;;20.67;19.67;;;;;21.33;61.60;100692.19;5059315;28;45327;-65
2022/06/23 01:43:25;;;;;;;;;23.00;22.67;;;;;21.33;62.07;100694.91;5061960;28;46067;-65
2022/06/23 01:46:06;;;;;;;;;19.67;19.33;;;;;21.32;62.21;100694.03;5054414;28;45386;-65
2022/06/23 01:48:53;;;;;;;;;20.33;18.00;;;;;21.37;62.41;100688.19;5058202;28;45424;-65
2022/06/23 01:51:28;;;;;;;;;19.33;18.33;;;;;21.44;62.51;100691.13;5045530;28;45374;-65
2022/06/23 01:54:06;;;;;;;;;19.00;17.67;;;;;21.49;62.51;100691.53;5056979;28;46236;-65
2022/06/23 01:56:37;;;;;;;;;22.00;19.00;;;;;21.54;62.22;100689.25;5060624;28;45211;-65
2022/06/23 01:59:10;;;;;;;;;21.67;18.67;;;;;21.57;62.19;100682.69;5059973;28;45391;-65
2022/06/23 02:01:52;;;;;;;;;21.00;17.67;;;;;21.62;62.56;100691.22;5058414;27;45338;-65
2022/06/23 02:04:30;;;;;;;;;19.00;17.33;;;;;21.67;61.88;100688.03;5055413;28;45332;-65
2022/06/23 02:06:58;;;;;;;;;28.33;23.67;;;;;21.68;62.19;100687.03;5052036;28;45676;-65
2022/06/23 02:09:27;;;;;;;;;16.33;16.33;;;;;21.70;62.34;100688.59;5047721;28;45744;-65
2022/06/23 02:11:53;;;;;;;;;19.33;18.67;;;;;21.71;62.21;100690.31;5067396;28;45339;-65
2022/06/23 02:14:48;;;;;;;;;20.33;18.00;;;;;21.73;62.01;100690.16;5055416;28;47091;-65
2022/06/23 02:17:40;;;;;;;;;22.00;22.00;;;;;21.75;62.10;100693.56;5059221;28;45476;-65
2022/06/23 02:20:26;;;;;;;;;23.33;21.00;;;;;21.77;61.71;100689.69;5055260;28;45334;-65
2022/06/23 02:23:01;;;;;;;;;22.33;19.67;;;;;21.79;61.92;100686.84;5048656;28;45550;-65
2022/06/23 02:25:30;;;;;;;;;25.67;20.33;;;;;21.80;62.07;100683.13;5058540;28;45533;-65
2022/06/23 02:28:18;;;;;;;;;21.33;21.33;;;;;21.79;61.93;100679.56;5064482;28;45349;-65
2022/06/23 02:31:04;;;;;;;;;22.67;22.67;;;;;21.78;62.21;100679.72;5058527;28;45671;-65
2022/06/23 02:33:44;;;;;;;;;25.00;23.00;;;;;21.77;62.00;100688.81;5052355;28;45610;-65
2022/06/23 02:36:36;;;;;;;;;21.67;20.33;;;;;21.75;61.89;100674.63;5058402;28;46215;-65
2022/06/23 02:39:05;;;;;;;;;23.00;21.67;;;;;21.75;61.93;100682.72;5058571;28;45361;-65
2022/06/23 02:41:36;;;;;;;;;24.00;24.00;;;;;21.75;62.00;100678.16;5063545;28;45340;-65
2022/06/23 02:44:18;;;;;;;;;18.67;18.00;;;;;21.76;62.36;100676.31;5062840;28;45649;-65
2022/06/23 02:46:54;;;;;;;;;22.33;22.33;;;;;21.77;62.09;100680.72;5055472;27;45365;-65
2022/06/23 02:49:53;;;;;;;;;24.67;21.67;;;;;21.75;62.53;100680.88;5060557;28;45405;-65
2022/06/23 02:52:56;;;;;;;;;20.67;19.00;;;;;21.73;62.32;100669.34;5053027;28;45459;-65
2022/06/23 02:55:43;;;;;;;;;21.67;21.67;;;;;21.71;62.11;100673.22;5051169;28;45280;-66
2022/06/23 02:58:25;;;;;;;;;27.00;24.67;;;;;21.67;62.60;100669.97;5056489;28;45898;-65
2022/06/23 03:01:25;;;;;;;;;23.33;23.00;;;;;21.66;62.58;100670.13;5053205;28;45232;-65
2022/06/23 03:04:10;;;;;;;;;30.67;25.00;;;;;21.64;62.55;100670.25;5059502;28;45558;-65
2022/06/23 03:06:52;;;;;;;;;28.67;26.67;;;;;21.64;62.59;100673.81;5080414;27;45770;-65
2022/06/23 03:09:21;;;;;;;;;24.00;23.00;;;;;21.69;62.87;100675.22;5054314;28;46337;-65
2022/06/23 03:11:55;;;;;;;;;26.33;23.67;;;;;21.70;62.59;100677.75;5053505;28;45686;-65
2022/06/23 03:14:24;;;;;;;;;26.00;24.00;;;;;21.74;62.89;100686.44;5066325;28;45392;-65
2022/06/23 03:16:55;;;;;;;;;23.33;22.00;;;;;21.77;63.26;100676.16;5059620;28;45659;-65
2022/06/23 03:19:28;;;;;;;;;20.33;20.33;;;;;21.80;62.91;100685.84;5059941;28;45457;-65
2022/06/23 03:22:15;;;;;;;;;26.33;25.67;;;;;21.83;63.09;100680.09;5060159;28;45323;-65
2022/06/23 03:25:13;;;;;;;;;25.33;25.00;;;;;21.86;63.16;100693.31;5057856;28;45485;-65
2022/06/23 03:27:52;;;;;;;;;26.67;23.67;;;;;21.89;62.72;100689.47;5072351;28;45418;-65
2022/06/23 03:30:44;;;;;;;;;29.00;26.33;;;;;21.88;62.55;100696.75;5059546;28;45529;-65
2022/06/23 03:33:13;;;;;;;;;23.00;23.00;;;;;21.86;62.92;100696.03;5057973;28;45326;-64
2022/06/23 03:35:56;;;;;;;;;21.33;19.67;;;;;21.84;63.11;100695.34;5057948;28;45260;-65
2022/06/23 03:41:38;;;;;;;;;6.33;4.67;;;;;21.70;63.28;100702.13;5056645;28;45407;-65
2022/06/23 03:44:03;;;;;;;;;4.00;2.33;;;;;21.57;63.38;100707.88;5057149;28;45346;-65
2022/06/23 03:46:40;;;;;;;;;4.00;4.00;;;;;21.49;63.55;100705.06;5061742;28;45968;-65
2022/06/23 03:49:14;;;;;;;;;3.00;2.33;;;;;21.35;63.78;100701.00;5060569;28;45370;-65
2022/06/23 03:51:49;;;;;;;;;3.33;2.67;;;;;21.27;63.64;100709.84;5058007;28;46263;-65
2022/06/23 03:54:19;;;;;;;;;2.67;1.33;;;;;21.17;63.91;100717.16;5057021;28;45547;-65
2022/06/23 03:56:53;;;;;;;;;5.00;4.00;;;;;21.11;63.89;100721.31;5058520;28;45739;-65
2022/06/23 03:59:29;;;;;;;;;1.67;1.67;;;;;21.12;64.24;100724.88;5074576;27;45439;-65
2022/06/23 04:02:03;;;;;;;;;3.00;3.00;;;;;21.13;64.00;100727.44;5052059;28;45330;-65
2022/06/23 04:04:48;;;;;;;;;5.00;3.67;;;;;21.16;64.32;100729.00;5056985;28;45416;-65
2022/06/23 04:07:28;;;;;;;;;5.00;3.00;;;;;21.15;64.35;100732.69;5057150;28;45461;-64
2022/06/23 04:10:04;;;;;;;;;4.67;3.33;;;;;21.11;64.47;100745.63;5055492;28;45311;-65
2022/06/23 04:12:30;;;;;;;;;3.33;1.67;;;;;21.01;64.49;100731.28;5055469;28;46228;-65
2022/06/23 04:15:21;;;;;;;;;2.33;2.33;;;;;20.88;64.89;100736.19;5055926;27;45382;-65
2022/06/23 04:18:16;;;;;;;;;5.00;2.67;;;;;20.76;64.51;100743.59;5059553;28;45419;-65
2022/06/23 04:20:51;;;;;;;;;4.00;3.67;;;;;20.65;65.40;100750.81;5054055;28;45324;-65
2022/06/23 04:23:21;;;;;;;;;4.33;3.33;;;;;20.62;65.29;100748.41;5060003;28;46277;-65
2022/06/23 04:25:50;;;;;;;;;7.00;3.67;;;;;20.59;65.28;100754.09;5074117;27;45540;-65
2022/06/23 04:28:31;;;;;;;;;4.00;4.00;;;;;20.62;65.54;100758.34;5056091;28;45399;-65
2022/06/23 04:30:59;;;;;;;;;5.00;5.00;;;;;20.64;64.87;100761.78;5058390;28;45439;-65
2022/06/23 04:33:25;;;;;;;;;3.33;3.33;;;;;20.63;65.05;100763.63;5061104;28;46272;-65
2022/06/23 04:35:58;;;;;;;;;2.33;1.67;;;;;20.69;64.74;100761.34;5054265;28;45401;-65
2022/06/23 04:38:38;;;;;;;;;4.67;2.33;;;;;20.73;64.85;100763.66;5058059;28;45457;-65
2022/06/23 04:41:21;;;;;;;;;3.33;3.00;;;;;20.78;64.85;100765.91;5058511;28;45517;-65
2022/06/23 04:43:52;;;;;;;;;3.33;3.33;;;;;20.80;64.66;100762.06;5058279;28;45521;-64
2022/06/23 04:46:37;;;;;;;;;4.00;3.00;;;;;20.70;64.33;100771.19;5060048;28;45789;-66
2022/06/23 04:49:06;;;;;;;;;6.00;3.00;;;;;20.60;64.87;100776.59;5089413;27;45679;-64
2022/06/23 04:51:44;;;;;;;;;4.00;4.00;;;;;20.53;64.59;100770.88;5059619;28;45527;-64
2022/06/23 04:54:17;;;;;;;;;2.33;2.00;;;;;20.43;65.26;100768.19;5050413;28;45980;-65
2022/06/23 04:56:43;;;;;;;;;4.00;2.00;;;;;20.42;65.47;100776.44;5066065;28;45484;-65
2022/06/23 04:59:36;;;;;;;;;4.00;3.00;;;;;20.43;65.41;100776.28;5057515;28;45274;-66
2022/06/23 05:02:20;;;;;;;;;3.00;3.00;;;;;20.45;65.12;100782.38;5082689;27;45591;-65
2022/06/23 05:04:52;;;;;;;;;5.00;3.00;;;;;20.50;65.27;100781.97;5059951;28;46288;-65
2022/06/23 05:07:29;;;;;;;;;3.00;3.00;;;;;20.59;64.76;100781.09;5067131;28;45458;-65
2022/06/23 05:09:59;;;;;;;;;3.33;2.00;;;;;20.67;65.35;100778.53;5080516;27;45479;-65
2022/06/23 05:12:29;;;;;;;;;4.33;3.33;;;;;20.74;64.52;100781.56;5057778;28;45559;-64
2022/06/23 05:15:17;;;;;;;;;4.67;2.00;;;;;20.81;64.96;100779.16;5053660;28;46249;-65
2022/06/23 05:17:52;;;;;;;;;3.33;3.33;;;;;20.88;64.81;100785.66;5055196;28;45497;-65
2022/06/23 05:20:31;;;;;;;;;6.67;4.00;;;;;20.90;64.22;100783.69;5054075;28;45228;-65
2022/06/23 05:22:56;;;;;;;;;4.33;2.67;;;;;20.95;64.40;100791.34;5040518;28;45567;-65
2022/06/23 05:25:39;;;;;;;;;3.00;3.00;;;;;20.98;64.67;100786.50;5039123;28;46190;-65
2022/06/23 05:28:09;;;;;;;;;3.67;3.00;;;;;21.02;64.00;100791.66;5051097;28;45614;-65
2022/06/23 05:30:40;;;;;;;;;4.67;4.67;;;;;21.00;64.58;100794.47;5056997;28;45565;-65
2022/06/23 05:33:14;;;;;;;;;2.67;2.67;;;;;21.03;64.60;100793.31;5059212;28;45499;-65
2022/06/23 05:35:44;;;;;;;;;3.00;3.00;;;;;21.08;64.62;100799.16;5076655;27;45621;-65
2022/06/23 05:38:40;;;;;;;;;5.00;2.33;;;;;21.12;64.33;100795.19;5062291;27;45484;-65
2022/06/23 05:41:24;;;;;;;;;4.33;4.33;;;;;21.14;64.20;100790.47;5060324;28;45394;-65
2022/06/23 05:43:51;;;;;;;;;6.33;2.67;;;;;21.18;63.88;100791.88;5057994;28;45245;-64
2022/06/23 05:46:20;;;;;;;;;5.33;1.67;;;;;21.23;63.97;100783.34;5052070;28;45628;-65
2022/06/23 05:48:54;;;;;;;;;3.00;3.00;;;;;21.25;63.63;100787.59;5059403;28;45506;-65
2022/06/23 05:51:27;;;;;;;;;4.33;2.33;;;;;21.28;63.71;100781.03;5049405;28;45397;-65
2022/06/23 05:54:25;;;;;;;;;4.67;3.00;;;;;21.32;63.97;100777.88;5052058;28;45552;-65
2022/06/23 05:56:51;;;;;;;;;4.33;3.00;;;;;21.36;63.42;100778.44;5081554;27;45362;-65
2022/06/23 05:59:23;;;;;;;;;4.33;3.33;;;;;21.38;62.93;100783.69;5065091;28;45556;-65
2022/06/23 06:02:01;;;;;;;;;7.00;3.00;;;;;21.38;62.97;100778.28;5061979;28;45364;-65
2022/06/23 06:04:57;;;;;;;;;7.67;4.00;;;;;21.35;62.06;100771.31;5077035;27;45750;-64
2022/06/23 06:07:33;;;;;;;;;4.67;2.67;;;;;21.35;62.16;100765.06;5024254;27;1128000;-64
2022/06/23 06:09:59;;;;;;;;;3.67;3.67;;;;;21.39;62.51;100755.66;5064489;28;45564;-65
2022/06/23 06:12:27;;;;;;;;;4.00;4.00;;;;;21.40;62.31;100769.03;5061694;28;45720;-64
2022/06/23 06:15:00;;;;;;;;;6.33;4.67;;;;;21.40;61.67;100763.63;5056875;28;45153;-65
2022/06/23 06:17:28;;;;;;;;;3.33;3.33;;;;;21.43;62.13;100757.06;5060013;28;46436;-64
2022/06/23 06:19:55;;;;;;;;;4.67;3.67;;;;;21.45;61.33;100752.38;5060306;28;45308;-64
2022/06/23 06:22:39;;;;;;;;;6.33;3.33;;;;;21.48;61.18;100754.75;5056036;28;45386;-64
2022/06/23 06:25:07;;;;;;;;;4.33;4.33;;;;;21.54;60.90;100762.31;5049951;28;45296;-63
2022/06/23 06:27:33;;;;;;;;;4.33;4.33;;;;;21.56;60.91;100749.50;5057069;28;46200;-64
2022/06/23 06:29:59;;;;;;;;;3.33;3.33;;;;;21.55;60.26;100752.34;5059026;28;45453;-63
2022/06/23 06:32:28;;;;;;;;;5.00;5.00;;;;;21.56;60.12;100760.31;5057351;28;67558;-63
2022/06/23 06:35:03;;;;;;;;;6.00;6.00;;;;;21.61;60.54;100768.81;5066315;28;45336;-64
2022/06/23 06:37:33;;;;;;;;;7.67;6.00;;;;;21.72;60.57;100775.03;5056817;28;46937;-64
2022/06/23 06:40:00;;;;;;;;;5.33;5.33;;;;;21.80;59.66;100767.03;5058203;28;45458;-65
2022/06/23 06:42:33;;;;;;;;;9.00;6.00;;;;;21.84;59.73;100771.16;5052843;28;45378;-65
2022/06/23 06:45:02;;;;;;;;;5.00;5.00;;;;;21.89;59.43;100767.97;5054690;28;45457;-66
2022/06/23 06:47:30;;;;;;;;;5.67;5.00;;;;;21.99;59.30;100766.06;5058171;28;46178;-69
2022/06/23 06:49:59;;;;;;;;;6.33;6.00;;;;;22.17;59.08;100760.66;5058064;28;45524;-66
2022/06/23 06:52:26;;;;;;;;;5.33;5.00;;;;;22.38;58.90;100768.50;5052169;28;45310;-67
2022/06/23 06:54:56;;;;;;;;;7.00;7.00;;;;;22.56;58.30;100765.81;5057666;28;55624;-67
2022/06/23 06:57:46;;;;;;;;;7.33;7.33;;;;;22.71;57.82;100784.22;5058060;28;45366;-67
2022/06/23 07:00:17;;;;;;;;;6.00;6.00;;;;;22.75;57.51;100775.63;5057801;28;45346;-67
2022/06/23 07:02:51;;;;;;;;;5.33;5.00;;;;;22.83;57.28;100766.72;5058338;28;45326;-67
2022/06/23 07:05:29;;;;;;;;;3.33;1.67;;;;;22.98;56.71;100775.13;5059493;28;45393;-67
2022/06/23 07:08:12;;;;;;;;;7.00;6.33;;;;;23.12;56.57;100779.94;5057648;28;46337;-67
2022/06/23 07:11:32;;;;;;;;;6.67;5.33;;;;;23.34;55.94;100771.50;5057902;28;45377;-66
2022/06/23 07:14:23;;;;;;;;;8.00;6.00;;;;;23.51;55.57;100777.84;5047565;28;45412;-66
2022/06/23 07:16:56;;;;;;;;;6.33;5.33;;;;;23.60;55.33;100775.00;5039283;28;45797;-65
2022/06/23 07:19:34;;;;;;;;;5.25;5.00;;;;;23.61;54.98;100770.44;5054953;28;46318;-65
2022/06/23 07:22:26;;;;;;;;;6.33;6.33;;;;;23.67;54.13;100764.34;5048472;28;45687;-65
2022/06/23 07:25:19;;;;;;;;;4.50;3.75;;;;;23.75;54.50;100769.81;5058241;28;45688;-66
2022/06/23 07:27:49;;;;;;;;;5.00;4.00;;;;;23.93;53.95;100775.16;5058137;28;45432;-65
2022/06/23 07:30:18;;;;;;;;;5.00;4.00;;;;;24.09;52.96;100781.66;5057514;28;45878;-64
2022/06/23 07:32:48;;;;;;;;;5.00;5.00;;;;;24.10;52.84;100795.06;5053344;28;45471;-64
2022/06/23 07:35:16;;;;;;;;;5.50;5.25;;;;;24.13;52.58;100796.59;5048250;28;45350;-64
2022/06/23 07:37:46;;;;;;;;;4.67;4.67;;;;;24.08;52.88;100794.38;5050925;28;45427;-64
2022/06/23 07:40:14;;;;;;;;;6.75;3.75;;;;;24.16;52.85;100789.97;5052960;28;45557;-65
2022/06/23 07:43:07;;;;;;;;;4.00;4.00;;;;;24.45;52.55;100803.13;5074904;28;45767;-65
2022/06/23 07:45:33;;;;;;;;;5.33;4.00;;;;;24.80;52.11;100798.41;5051992;28;45323;-65
2022/06/23 07:47:58;;;;;;;;;3.00;3.00;;;;;25.02;51.75;100796.88;5039787;28;45435;-65
2022/06/23 07:50:24;;;;;;;;;4.25;4.25;;;;;25.29;51.34;100794.78;5044340;28;46191;-65
2022/06/23 07:52:49;;;;;;;;;3.50;3.25;;;;;25.49;50.54;100803.44;5053813;28;62709;-65
2022/06/23 07:55:27;;;;;;;;;5.75;5.75;;;;;25.61;50.02;100797.63;5060990;28;45312;-65
2022/06/23 07:57:53;;;;;;;;;5.33;4.00;;;;;25.61;49.60;100797.63;5056223;28;45221;-65
2022/06/23 08:00:19;;;;;;;;;5.25;4.00;;;;;25.68;48.86;100802.19;5049639;28;47955;-66
2022/06/23 08:03:00;;;;;;;;;5.00;4.75;;;;;25.69;49.20;100803.03;5056166;28;45434;-66
2022/06/23 08:05:35;;;;;;;;;6.50;5.25;;;;;25.77;48.46;100789.38;5045499;28;45336;-66
2022/06/23 08:08:01;;;;;;;;;7.00;5.75;;;;;25.91;48.95;100799.53;5053785;28;45645;-66
2022/06/23 08:10:29;;;;;;;;;6.75;5.50;;;;;26.16;48.61;100799.44;5070093;28;46352;-66
2022/06/23 08:13:01;;;;;;;;;4.00;3.75;;;;;26.41;47.91;100791.97;5053863;28;45779;-65
2022/06/23 08:18:40;;;;;;;;;5.75;5.75;;;;;27.00;45.90;100790.47;5050471;28;45659;-66
2022/06/23 08:21:13;;;;;;;;;7.25;4.00;;;;;27.22;46.00;100796.03;5047765;28;46327;-66
2022/06/23 08:23:46;;;;;;;;;4.50;4.50;;;;;27.60;46.10;100796.00;5057038;28;45350;-66
2022/06/23 08:26:12;;;;;;;;;5.50;4.50;;;;;27.89;44.81;100800.59;5057044;28;45380;-67
2022/06/23 08:28:38;;;;;;;;;5.67;5.00;;;;;28.01;44.63;100797.38;5057086;28;45378;-66
2022/06/23 08:31:04;;;;;;;;;6.00;5.25;;;;;28.01;43.68;100803.66;5053086;28;46223;-66
2022/06/23 08:33:31;;;;;;;;;8.25;5.25;;;;;27.96;43.13;100802.56;5041544;28;45451;-66
2022/06/23 08:35:58;;;;;;;;;7.50;5.50;;;;;27.92;43.78;100793.88;5052072;28;45322;-65
2022/06/23 08:38:44;;;;;;;;;5.50;4.50;;;;;28.12;43.57;100796.03;5051366;28;45387;-66
2022/06/23 08:41:24;;;;;;;;;6.00;4.25;;;;;28.39;43.33;100791.72;5039711;28;46150;-66
2022/06/23 08:44:08;;;;;;;;;3.50;3.50;;;;;28.87;43.05;100802.91;5054680;28;45619;-67
2022/06/23 08:46:51;;;;;;;;;4.25;4.25;;;;;29.29;41.99;100786.63;5052645;28;45471;-67
2022/06/23 08:49:22;;;;;;;;;5.50;4.75;;;;;29.54;41.05;100799.81;5047418;28;45319;-66
2022/06/23 08:52:08;;;;;;;;;5.25;4.50;;;;;29.85;40.87;100801.25;5047225;28;46113;-67
2022/06/23 08:54:40;;;;;;;;;5.33;5.33;;;;;30.25;39.83;100806.06;5049771;28;45256;-67
2022/06/23 08:57:18;;;;;;;;;5.33;5.33;;;;;30.65;40.39;100804.28;5052885;28;45277;-67
2022/06/23 09:00:26;;;;;;;;;4.00;2.50;;;;;30.89;38.89;100801.13;5052258;28;45475;-67
2022/06/23 09:03:19;;;;;;;;;4.00;4.00;;;;;31.14;39.02;100802.16;5034016;28;45386;-68
2022/06/23 09:06:07;;;;;;;;;5.00;5.00;;;;;31.43;37.92;100791.78;5018511;28;45335;-68
2022/06/23 09:08:54;;;;;;;;;5.00;5.00;;;;;31.48;37.31;100797.44;5051189;28;45483;-68
2022/06/23 09:11:41;;;;;;;;;4.00;4.00;;;;;31.75;37.26;100799.31;5054124;28;45359;-68
2022/06/23 09:14:25;;;;;;;;;4.75;4.75;;;;;32.17;36.25;100795.09;5054926;28;46389;-68
2022/06/23 09:17:01;;;;;;;;;5.67;5.00;;;;;32.31;34.64;100795.03;5047169;28;45497;-68
2022/06/23 09:20:04;;;;;;;;;4.00;4.00;;;;;32.13;35.36;100793.81;5054023;28;45425;-69
2022/06/23 09:22:36;;;;;;;;;7.00;5.00;;;;;32.29;34.86;100802.66;5057944;28;45840;-68
2022/06/23 09:25:12;;;;;;;;;5.50;5.50;;;;;32.30;34.18;100796.94;5053765;28;46155;-68
2022/06/23 09:28:14;;;;;;;;;6.25;4.50;;;;;32.23;35.12;100800.78;5052273;28;45370;-68
2022/06/23 09:30:46;;;;;;;;;4.75;4.50;;;;;32.52;34.18;100801.25;5056922;28;45505;-69
2022/06/23 09:33:21;;;;;;;;;6.00;6.00;;;;;32.87;34.30;100796.13;5060246;28;45161;-69
2022/06/23 09:35:52;;;;;;;;;5.50;4.25;;;;;33.30;34.32;100797.25;5050927;28;45485;-62
2022/06/23 09:38:36;;;;;;;;;5.25;5.25;;;;;33.60;33.58;100789.06;5054480;28;45342;-61
2022/06/23 09:41:12;;;;;;;;;4.25;4.25;;;;;33.73;33.06;100785.31;5056459;28;45426;-62
2022/06/23 09:44:06;;;;;;;;;4.50;4.00;;;;;33.68;32.45;100782.38;5056123;28;45358;-62
2022/06/23 09:46:40;;;;;;;;;4.00;4.00;;;;;33.17;32.98;100780.81;5057615;28;45278;-62
2022/06/23 09:49:30;;;;;;;;;7.00;5.00;;;;;32.87;33.05;100779.63;5055421;28;45355;-62
2022/06/23 09:52:20;;;;;;;;;3.75;3.75;;;;;32.71;33.38;100786.50;5048538;28;45454;-62
2022/06/23 09:55:22;;;;;;;;;7.25;6.50;;;;;32.82;33.22;100779.44;5064157;28;45457;-62
2022/06/23 09:58:06;;;;;;;;;6.25;6.25;;;;;33.11;33.15;100780.66;5053021;28;45356;-62
2022/06/23 10:00:37;;;;;;;;;7.00;7.00;;;;;33.28;32.39;100780.09;5053315;28;45351;-62
2022/06/23 10:03:30;;;;;;;;;4.75;4.75;;;;;33.56;32.73;100784.22;5050376;28;46002;-62
2022/06/23 10:06:11;;;;;;;;;5.00;5.00;;;;;33.76;31.99;100772.97;5048100;28;45475;-62
2022/06/23 10:08:55;;;;;;;;;5.25;4.50;;;;;33.84;30.40;100769.91;5066275;28;46426;-62
2022/06/23 10:11:58;;;;;;;;;3.75;3.75;;;;;33.44;31.33;100775.88;5052764;28;45470;-61
2022/06/23 10:14:42;;;;;;;;;3.50;3.50;;;;;33.19;31.06;100776.75;5051968;28;45407;-61
2022/06/23 10:17:20;;;;;;;;;5.00;5.00;;;;;32.84;30.88;100785.56;5047857;28;45343;-61
2022/06/23 10:19:51;;;;;;;;;3.50;2.75;;;;;32.09;31.29;100787.09;5051261;28;46323;-61
2022/06/23 10:22:44;;;;;;;;;3.75;3.75;;;;;31.28;32.49;100785.69;5050132;28;45315;-61
2022/06/23 10:25:28;;;;;;;;;4.50;4.50;;;;;30.86;33.54;100785.91;5060424;28;45370;-62
2022/06/23 10:27:58;;;;;;;;;5.75;3.50;;;;;30.79;33.62;100787.78;5057533;28;45464;-62
2022/06/23 10:30:48;;;;;;;;;3.75;3.75;;;;;30.55;34.43;100787.38;5053233;28;46211;-61
2022/06/23 10:33:41;;;;;;;;;5.25;5.25;;;;;30.55;34.44;100778.28;5057381;28;45433;-64
2022/06/23 10:36:19;;;;;;;;;4.50;3.00;;;;;30.81;34.50;100785.69;5053597;28;45576;-61
2022/06/23 10:38:56;;;;;;;;;5.00;3.00;;;;;31.25;33.95;100770.47;5054363;28;45407;-62
2022/06/23 10:41:45;;;;;;;;;4.75;4.75;;;;;31.65;33.78;100773.13;5057934;28;46306;-62
2022/06/23 10:44:30;;;;;;;;;4.25;3.00;;;;;31.64;33.73;100770.59;5056907;28;45502;-61
2022/06/23 10:47:19;;;;;;;;;4.00;4.00;;;;;31.66;33.20;100766.56;5044179;28;45530;-62
2022/06/23 10:50:09;;;;;;;;;5.00;5.00;;;;;31.66;33.68;100765.72;5051714;28;45300;-61
2022/06/23 10:52:53;;;;;;;;;4.50;4.50;;;;;32.06;33.15;100759.19;5051409;28;45388;-62
2022/06/23 10:55:31;;;;;;;;;5.75;3.75;;;;;32.12;31.99;100759.16;5046894;28;45494;-61
2022/06/23 10:58:02;;;;;;;;;5.00;4.00;;;;;31.73;31.99;100765.69;5059117;28;45372;-61
2022/06/23 11:00:33;;;;;;;;;3.25;1.50;;;;;31.67;32.11;100775.66;5059469;28;45451;-62
2022/06/23 11:03:20;;;;;;;;;4.75;4.50;;;;;31.37;32.33;100761.56;5058696;28;46073;-62
2022/06/23 11:05:54;;;;;;;;;6.00;6.00;;;;;31.24;32.54;100759.69;5058317;28;45478;-62
2022/06/23 11:08:31;;;;;;;;;5.00;5.00;;;;;31.28;33.49;100760.97;5058397;28;45659;-61
2022/06/23 11:11:12;;;;;;;;;7.00;6.00;;;;;31.37;33.04;100754.16;5058673;28;45366;-62
2022/06/23 11:13:57;;;;;;;;;7.00;5.75;;;;;31.48;32.65;100758.16;5058436;28;46325;-62
2022/06/23 11:16:55;;;;;;;;;3.75;3.75;;;;;31.41;32.75;100751.84;5058310;27;45299;-62
2022/06/23 11:19:45;;;;;;;;;7.00;6.00;;;;;31.47;32.49;100754.56;5053267;28;45370;-61
2022/06/23 11:22:14;;;;;;;;;3.75;3.75;;;;;31.70;32.75;100744.97;5056926;28;45299;-61
2022/06/23 11:25:00;;;;;;;;;5.50;4.25;;;;;31.87;32.16;100747.25;5057258;28;45294;-61
2022/06/23 11:27:37;;;;;;;;;6.00;4.75;;;;;31.91;31.31;100740.22;5058042;28;45348;-61
2022/06/23 11:30:06;;;;;;;;;5.00;5.00;;;;;32.04;32.04;100742.06;5058202;28;45325;-62
2022/06/23 11:32:57;;;;;;;;;3.25;3.25;;;;;32.30;31.42;100754.84;5057799;28;45574;-62
2022/06/23 11:35:44;;;;;;;;;4.75;3.50;;;;;32.12;31.28;100737.16;5058320;28;46368;-62
2022/06/23 11:38:42;;;;;;;;;5.67;5.33;;;;;32.21;31.28;100736.91;5042502;28;45350;-62
2022/06/23 11:41:14;;;;;;;;;4.50;4.50;;;;;32.11;31.99;100734.59;5043784;28;45320;-63
2022/06/23 11:43:57;;;;;;;;;5.00;5.00;;;;;32.27;31.97;100733.28;5046848;28;45260;-61
2022/06/23 11:46:38;;;;;;;;;4.00;4.00;;;;;32.37;31.76;100730.03;5046002;28;45303;-62
2022/06/23 11:49:24;;;;;;;;;6.25;4.50;;;;;32.47;31.67;100724.88;5057122;28;45204;-61
2022/06/23 11:52:05;;;;;;;;;4.00;4.00;;;;;32.63;31.53;100731.72;5053496;28;45833;-61
2022/06/23 11:54:43;;;;;;;;;5.00;5.00;;;;;32.64;30.60;100725.16;5058459;28;45286;-61
2022/06/23 11:57:28;;;;;;;;;4.50;3.50;;;;;32.38;31.23;100726.22;5058553;28;46466;-62
2022/06/23 12:00:02;;;;;;;;;4.50;4.00;;;;;32.40;31.34;100718.56;5051026;28;45310;-62
2022/06/23 12:02:27;;;;;;;;;4.00;4.00;;;;;32.53;31.15;100712.09;5045303;28;45387;-62
2022/06/23 12:04:59;;;;;;;;;5.00;4.75;;;;;32.78;31.01;100712.16;5057878;28;45691;-62
2022/06/23 12:07:42;;;;;;;;;4.75;4.50;;;;;32.90;31.01;100709.47;5054280;28;45358;-62
2022/06/23 12:10:14;;;;;;;;;5.00;3.50;;;;;33.11;30.33;100703.50;5054097;28;45627;-62
2022/06/23 12:12:42;;;;;;;;;4.25;4.25;;;;;33.39;30.68;100702.19;5058134;28;45455;-62
2022/06/23 12:15:09;;;;;;;;;3.50;3.50;;;;;33.62;30.55;100695.09;5058741;28;45399;-62